createdAt,value
2019-03-06T00:02:43.481Z,1.70
2019-03-06T00:08:02.086Z,1.70
2019-03-06T00:13:09.508Z,1.80
2019-03-06T00:18:17.003Z,1.80
2019-03-06T00:23:24.569Z,1.80
2019-03-06T00:28:32.727Z,1.80
2019-03-06T00:33:39.717Z,1.80
2019-03-06T00:38:47.019Z,1.80
2019-03-06T00:43:54.131Z,1.70
2019-03-06T00:49:01.352Z,1.70
2019-03-06T00:54:08.403Z,1.70
2019-03-06T00:59:15.459Z,1.70
2019-03-06T01:04:23.270Z,1.70
2019-03-06T01:09:30.409Z,1.70
2019-03-06T01:14:37.632Z,1.60
2019-03-06T01:19:45.039Z,1.60
2019-03-06T01:24:52.203Z,1.70
2019-03-06T01:29:59.411Z,1.60
2019-03-06T01:35:27.317Z,1.60
2019-03-06T01:41:11.357Z,1.70
2019-03-06T01:46:19.076Z,1.70
2019-03-06T01:51:26.810Z,1.60
2019-03-06T01:56:33.999Z,1.70
2019-03-06T02:01:41.656Z,1.70
2019-03-06T02:06:48.728Z,1.60
2019-03-06T02:11:56.937Z,1.60
2019-03-06T02:17:04.027Z,1.60
2019-03-06T02:22:11.319Z,1.60
2019-03-06T02:27:18.643Z,1.60
2019-03-06T02:32:25.839Z,1.70
2019-03-06T02:37:33.318Z,1.70
2019-03-06T02:42:40.455Z,1.70
2019-03-06T02:47:47.652Z,1.70
2019-03-06T02:52:54.730Z,1.70
2019-03-06T02:58:24.698Z,1.70
2019-03-06T03:03:49.271Z,1.70
2019-03-06T03:08:56.357Z,1.60
2019-03-06T03:14:04.661Z,1.60
2019-03-06T03:19:12.684Z,1.60
2019-03-06T03:24:20.041Z,1.60
2019-03-06T03:29:27.224Z,1.70
2019-03-06T03:34:34.335Z,1.70
2019-03-06T03:39:41.485Z,1.70
2019-03-06T03:44:48.779Z,1.60
2019-03-06T03:49:56.826Z,1.60
2019-03-06T03:55:04.047Z,1.60
2019-03-06T04:00:13.056Z,1.60
2019-03-06T04:05:20.218Z,1.60
2019-03-06T04:10:27.349Z,1.50
2019-03-06T04:15:35.809Z,1.50
2019-03-06T04:20:47.122Z,1.50
2019-03-06T04:25:54.539Z,1.50
2019-03-06T04:31:02.717Z,1.50
2019-03-06T04:36:10.032Z,1.40
2019-03-06T04:41:17.115Z,1.40
2019-03-06T04:46:25.422Z,1.40
2019-03-06T04:51:32.833Z,1.40
2019-03-06T04:56:40.178Z,1.40
2019-03-06T05:01:47.173Z,1.40
2019-03-06T05:06:54.200Z,1.40
2019-03-06T05:12:01.357Z,1.40
2019-03-06T05:17:33.269Z,1.30
2019-03-06T05:22:40.398Z,1.30
2019-03-06T05:27:48.504Z,1.20
2019-03-06T05:32:55.801Z,1.20
2019-03-06T05:38:06.355Z,1.20
2019-03-06T05:43:13.504Z,1.30
2019-03-06T05:48:20.642Z,1.20
2019-03-06T05:53:27.657Z,1.20
2019-03-06T05:58:34.963Z,1.30
2019-03-06T06:03:42.099Z,1.30
2019-03-06T06:08:49.326Z,1.40
2019-03-06T06:13:58.358Z,1.40
2019-03-06T06:19:05.972Z,1.50
2019-03-06T06:24:15.588Z,1.50
2019-03-06T06:29:22.704Z,1.50
2019-03-06T06:34:29.784Z,1.60
2019-03-06T06:39:36.907Z,1.60
2019-03-06T06:44:44.041Z,1.60
2019-03-06T06:49:51.628Z,1.60
2019-03-06T06:55:09.450Z,1.60
2019-03-06T07:01:02.850Z,1.60
2019-03-06T07:06:33.922Z,1.70
2019-03-06T07:11:53.134Z,1.80
2019-03-06T07:17:26.163Z,1.80
2019-03-06T07:22:52.291Z,1.80
2019-03-06T07:28:18.339Z,1.80
2019-03-06T07:33:49.580Z,1.90
2019-03-06T07:39:02.900Z,1.90
2019-03-06T07:44:30.758Z,1.90
2019-03-06T07:49:57.266Z,2.00
2019-03-06T07:55:42.148Z,2.00
2019-03-06T08:00:49.374Z,2.10
2019-03-06T08:05:57.831Z,2.20
2019-03-06T08:11:08.761Z,2.20
2019-03-06T08:16:28.394Z,2.20
2019-03-06T08:22:07.848Z,2.30
2019-03-06T08:27:15.173Z,2.40
2019-03-06T08:32:32.611Z,2.60
2019-03-06T08:37:39.745Z,2.70
2019-03-06T08:42:47.023Z,2.80
2019-03-06T08:48:13.047Z,2.90
2019-03-06T08:53:42.416Z,2.90
2019-03-06T08:58:59.309Z,2.80
2019-03-06T09:04:15.336Z,2.80
2019-03-06T09:09:40.655Z,2.80
2019-03-06T09:15:09.312Z,2.90
2019-03-06T09:20:39.013Z,2.90
2019-03-06T09:26:18.363Z,3.00
2019-03-06T09:32:02.543Z,3.10
2019-03-06T09:37:31.302Z,3.30
2019-03-06T09:43:03.373Z,3.60
2019-03-06T09:48:33.616Z,3.80
2019-03-06T09:54:06.741Z,3.90
2019-03-06T09:59:27.898Z,3.80
2019-03-06T10:04:46.246Z,3.90
2019-03-06T10:10:15.121Z,4.00
2019-03-06T10:15:35.094Z,4.10
2019-03-06T10:20:42.192Z,4.20
2019-03-06T10:25:49.284Z,4.10
2019-03-06T10:31:02.414Z,4.10
2019-03-06T10:36:06.117Z,4.00
2019-03-06T10:41:13.267Z,4.10
2019-03-06T10:46:20.567Z,4.30
2019-03-06T10:51:27.782Z,4.30
2019-03-06T10:56:34.995Z,4.30
2019-03-06T11:01:42.205Z,4.30
2019-03-06T11:06:49.591Z,4.30
2019-03-06T11:11:56.970Z,4.40
2019-03-06T11:17:04.733Z,4.40
2019-03-06T11:22:12.552Z,4.50
2019-03-06T11:27:19.846Z,4.80
2019-03-06T11:32:27.046Z,5.30
2019-03-06T11:37:34.240Z,5.50
2019-03-06T11:42:41.373Z,6.00
2019-03-06T11:47:49.028Z,6.40
2019-03-06T11:52:57.231Z,6.30
2019-03-06T11:58:05.021Z,6.00
2019-03-06T12:03:13.021Z,6.00
2019-03-06T12:08:21.088Z,6.30
2019-03-06T12:13:28.296Z,6.50
2019-03-06T12:18:35.581Z,6.80
2019-03-06T12:23:43.023Z,8.00
2019-03-06T12:28:50.593Z,9.50
2019-03-06T12:33:57.760Z,10.70
2019-03-06T12:39:06.180Z,11.00
2019-03-06T12:44:14.864Z,9.60
2019-03-06T12:49:23.089Z,8.50
2019-03-06T12:54:30.263Z,7.80
2019-03-06T12:59:37.332Z,8.00
2019-03-06T13:04:44.530Z,8.50
2019-03-06T13:09:51.708Z,8.50
2019-03-06T13:14:58.894Z,8.30
2019-03-06T13:20:08.993Z,8.30
2019-03-06T13:25:19.283Z,8.40
2019-03-06T13:30:27.217Z,8.90
2019-03-06T13:35:34.925Z,9.60
2019-03-06T13:40:42.038Z,10.40
2019-03-06T13:45:49.294Z,11.00
2019-03-06T13:50:56.723Z,10.80
2019-03-06T13:56:04.901Z,10.60
2019-03-06T14:01:12.615Z,11.50
2019-03-06T14:06:20.247Z,11.50
2019-03-06T14:11:27.660Z,10.70
2019-03-06T14:16:34.814Z,10.90
2019-03-06T14:21:41.845Z,10.70
2019-03-06T14:26:48.987Z,10.40
2019-03-06T14:31:56.154Z,10.10
2019-03-06T14:37:04.527Z,9.90
2019-03-06T14:42:11.606Z,9.30
2019-03-06T14:47:19.793Z,8.80
2019-03-06T14:52:27.255Z,8.30
2019-03-06T14:57:34.362Z,8.00
2019-03-06T15:02:41.587Z,7.70
2019-03-06T15:07:49.434Z,7.60
2019-03-06T15:12:56.579Z,7.50
2019-03-06T15:18:10.702Z,7.50
2019-03-06T15:23:13.339Z,7.40
2019-03-06T15:28:20.560Z,7.30
2019-03-06T15:33:28.064Z,7.30
2019-03-06T15:38:35.576Z,7.30
2019-03-06T15:43:43.262Z,7.20
2019-03-06T15:48:50.545Z,7.20
2019-03-06T15:53:58.163Z,7.10
2019-03-06T15:59:14.693Z,7.00
2019-03-06T16:04:15.124Z,6.80
2019-03-06T16:09:22.341Z,6.70
2019-03-06T16:14:29.539Z,6.60
2019-03-06T16:19:36.664Z,6.50
2019-03-06T16:24:43.794Z,6.30
2019-03-06T16:29:50.909Z,6.30
2019-03-06T16:34:58.446Z,6.20
2019-03-06T16:40:12.204Z,6.10
2019-03-06T16:45:20.872Z,6.00
2019-03-06T16:50:28.282Z,6.00
2019-03-06T16:55:35.586Z,5.90
2019-03-06T17:00:42.746Z,5.80
2019-03-06T17:05:49.875Z,5.80
2019-03-06T17:10:57.318Z,5.70
2019-03-06T17:16:04.583Z,5.70
2019-03-06T17:21:11.745Z,5.70
2019-03-06T17:26:20.699Z,5.70
2019-03-06T17:31:27.963Z,5.70
2019-03-06T17:36:35.382Z,5.70
2019-03-06T17:41:43.579Z,5.70
2019-03-06T17:46:51.609Z,5.60
2019-03-06T17:51:59.099Z,5.60
2019-03-06T17:57:09.749Z,5.50
2019-03-06T18:02:21.118Z,5.60
2019-03-06T18:07:28.337Z,5.60
2019-03-06T18:12:36.029Z,5.60
2019-03-06T18:17:44.870Z,5.50
2019-03-06T18:22:52.616Z,5.50
2019-03-06T18:27:59.905Z,5.60
2019-03-06T18:33:07.290Z,5.50
2019-03-06T18:38:14.829Z,5.50
2019-03-06T18:43:22.555Z,5.50
2019-03-06T18:48:30.153Z,5.60
2019-03-06T18:53:37.424Z,5.50
2019-03-06T18:58:46.084Z,5.50
2019-03-06T19:03:53.404Z,5.40
2019-03-06T19:09:00.684Z,5.40
2019-03-06T19:14:09.739Z,5.40
2019-03-06T19:19:17.093Z,5.50
2019-03-06T19:24:24.281Z,5.50
2019-03-06T19:29:31.432Z,5.50
2019-03-06T19:34:40.119Z,5.50
2019-03-06T19:39:47.311Z,5.50
2019-03-06T19:44:54.456Z,5.50
2019-03-06T19:50:01.916Z,5.50
2019-03-06T19:55:11.231Z,5.60
2019-03-06T20:00:19.738Z,5.60
2019-03-06T20:05:30.496Z,5.70
2019-03-06T20:10:38.336Z,5.60
2019-03-06T20:15:45.521Z,5.60
2019-03-06T20:20:54.757Z,5.50
2019-03-06T20:26:02.071Z,5.50
2019-03-06T20:31:09.787Z,5.50
2019-03-06T20:36:17.004Z,5.40
2019-03-06T20:41:27.223Z,5.40
2019-03-06T20:46:35.547Z,5.40
2019-03-06T20:51:42.757Z,5.40
2019-03-06T20:56:50.118Z,5.40
2019-03-06T21:01:59.028Z,5.40
2019-03-06T21:07:06.212Z,5.40
2019-03-06T21:12:13.443Z,5.40
2019-03-06T21:17:20.641Z,5.50
2019-03-06T21:22:27.952Z,5.50
2019-03-06T21:27:35.117Z,5.40
2019-03-06T21:32:42.363Z,5.40
2019-03-06T21:37:49.661Z,5.40
2019-03-06T21:42:57.311Z,5.40
2019-03-06T21:48:04.810Z,5.40
2019-03-06T21:53:12.108Z,5.20
2019-03-06T21:58:19.327Z,5.20
2019-03-06T22:03:26.477Z,5.30
2019-03-06T22:08:35.403Z,5.20
2019-03-06T22:13:44.134Z,5.10
2019-03-06T22:18:51.299Z,5.00
2019-03-06T22:23:58.616Z,5.00
2019-03-06T22:29:06.271Z,4.90
2019-03-06T22:34:13.683Z,5.00
2019-03-06T22:39:20.983Z,5.00
2019-03-06T22:44:28.387Z,5.00
2019-03-06T22:49:35.712Z,5.00
2019-03-06T22:54:43.081Z,5.10
2019-03-06T22:59:50.319Z,5.10
2019-03-06T23:04:58.504Z,5.10
2019-03-06T23:10:06.232Z,5.00
2019-03-06T23:15:16.121Z,5.10
2019-03-06T23:20:23.347Z,5.00
2019-03-06T23:25:30.552Z,5.00
2019-03-06T23:30:37.720Z,5.00
2019-03-06T23:35:44.912Z,5.00
2019-03-06T23:40:52.093Z,5.00
2019-03-06T23:45:59.236Z,5.00
2019-03-06T23:51:13.298Z,5.00
2019-03-06T23:56:20.690Z,5.00
